Dallas, Texas
Traffic Map
Current Weather Conditions
Dallas, Texas
Overcast
Overcast
50°
Feels Like: 50°
Wind Chill: 50° Ceiling: 6500
Heat Index: 50° Visibility: 10mi
Dew Point: 46° Wind: 6mph
Humidity: 86% Direction: 360° (N)
Pressure: 30.05in Gusts: 0mph
Raw Report DataKDAL 041453Z 36005KT 10SM FEW008 SCT016 OVC065 10/08 A3005 RMK AO2 SLP173 T01000078 51021
Traffic Incident Summary
Active as of:
Severity:
Category:
InformationThere was an issue retrieving the traffic information for this location. Please try a different location or try again shortly.
Advertisements
Track Severe Weather on mobile